sensor_id;sensor_type;location;lat;lon;timestamp;P1;durP1;ratioP1;P2;durP2;ratioP2
9473;SDS011;8865;47.636;7.692;2023-05-16T00:00:29;5.50;;;5.00;;
9473;SDS011;8865;47.636;7.692;2023-05-16T00:03:00;4.70;;;4.37;;
9473;SDS011;8865;47.636;7.692;2023-05-16T00:05:27;4.87;;;4.47;;
9473;SDS011;8865;47.636;7.692;2023-05-16T00:07:53;4.87;;;4.47;;
9473;SDS011;8865;47.636;7.692;2023-05-16T00:10:19;5.23;;;4.83;;
9473;SDS011;8865;47.636;7.692;2023-05-16T00:12:46;5.13;;;4.73;;
9473;SDS011;8865;47.636;7.692;2023-05-16T00:15:16;5.47;;;4.93;;
9473;SDS011;8865;47.636;7.692;2023-05-16T00:17:45;6.90;;;5.90;;
9473;SDS011;8865;47.636;7.692;2023-05-16T00:20:12;6.13;;;5.50;;
9473;SDS011;8865;47.636;7.692;2023-05-16T00:22:38;6.93;;;5.67;;
9473;SDS011;8865;47.636;7.692;2023-05-16T00:25:05;6.97;;;6.27;;
9473;SDS011;8865;47.636;7.692;2023-05-16T00:27:32;7.33;;;6.63;;
9473;SDS011;8865;47.636;7.692;2023-05-16T00:29:59;7.57;;;6.37;;
9473;SDS011;8865;47.636;7.692;2023-05-16T00:32:26;7.30;;;6.30;;
9473;SDS011;8865;47.636;7.692;2023-05-16T00:34:52;6.77;;;6.10;;
9473;SDS011;8865;47.636;7.692;2023-05-16T00:37:17;6.73;;;6.03;;
9473;SDS011;8865;47.636;7.692;2023-05-16T00:39:43;6.70;;;6.10;;
9473;SDS011;8865;47.636;7.692;2023-05-16T00:42:09;7.03;;;5.83;;
9473;SDS011;8865;47.636;7.692;2023-05-16T00:44:35;6.43;;;5.83;;
9473;SDS011;8865;47.636;7.692;2023-05-16T00:47:01;6.90;;;6.20;;
9473;SDS011;8865;47.636;7.692;2023-05-16T00:49:28;5.70;;;5.10;;
9473;SDS011;8865;47.636;7.692;2023-05-16T00:51:55;6.43;;;5.80;;
9473;SDS011;8865;47.636;7.692;2023-05-16T00:54:23;6.20;;;5.60;;
9473;SDS011;8865;47.636;7.692;2023-05-16T00:56:53;6.57;;;5.33;;
9473;SDS011;8865;47.636;7.692;2023-05-16T00:59:21;6.03;;;5.47;;
9473;SDS011;8865;47.636;7.692;2023-05-16T01:01:48;6.97;;;5.77;;
9473;SDS011;8865;47.636;7.692;2023-05-16T01:04:15;6.67;;;6.07;;
9473;SDS011;8865;47.636;7.692;2023-05-16T01:06:42;6.60;;;6.00;;
9473;SDS011;8865;47.636;7.692;2023-05-16T01:09:09;8.03;;;6.00;;
9473;SDS011;8865;47.636;7.692;2023-05-16T01:17:19;8.93;;;6.57;;
9473;SDS011;8865;47.636;7.692;2023-05-16T01:22:50;8.37;;;6.97;;
9473;SDS011;8865;47.636;7.692;2023-05-16T01:28:10;6.70;;;6.10;;
9473;SDS011;8865;47.636;7.692;2023-05-16T01:30:40;6.77;;;6.17;;
9473;SDS011;8865;47.636;7.692;2023-05-16T01:33:07;6.57;;;5.97;;
9473;SDS011;8865;47.636;7.692;2023-05-16T01:35:35;6.93;;;6.23;;
9473;SDS011;8865;47.636;7.692;2023-05-16T01:38:25;7.20;;;6.50;;
9473;SDS011;8865;47.636;7.692;2023-05-16T01:41:00;7.73;;;7.03;;
9473;SDS011;8865;47.636;7.692;2023-05-16T01:43:45;7.83;;;7.03;;
9473;SDS011;8865;47.636;7.692;2023-05-16T01:46:20;8.37;;;6.90;;
9473;SDS011;8865;47.636;7.692;2023-05-16T01:49:11;7.60;;;6.90;;
9473;SDS011;8865;47.636;7.692;2023-05-16T01:51:42;7.33;;;6.63;;
9473;SDS011;8865;47.636;7.692;2023-05-16T01:54:15;7.77;;;6.97;;
9473;SDS011;8865;47.636;7.692;2023-05-16T01:56:46;7.80;;;6.90;;
9473;SDS011;8865;47.636;7.692;2023-05-16T01:59:16;7.83;;;7.13;;
9473;SDS011;8865;47.636;7.692;2023-05-16T02:01:43;8.13;;;7.43;;
9473;SDS011;8865;47.636;7.692;2023-05-16T02:04:09;7.67;;;6.80;;
9473;SDS011;8865;47.636;7.692;2023-05-16T02:06:36;8.63;;;7.43;;
9473;SDS011;8865;47.636;7.692;2023-05-16T02:09:02;8.53;;;7.17;;
9473;SDS011;8865;47.636;7.692;2023-05-16T02:11:28;9.27;;;7.20;;
9473;SDS011;8865;47.636;7.692;2023-05-16T02:13:54;8.37;;;7.57;;
9473;SDS011;8865;47.636;7.692;2023-05-16T02:16:20;9.53;;;7.33;;
9473;SDS011;8865;47.636;7.692;2023-05-16T02:18:45;7.87;;;7.17;;
9473;SDS011;8865;47.636;7.692;2023-05-16T02:21:11;7.63;;;6.93;;
9473;SDS011;8865;47.636;7.692;2023-05-16T02:23:37;9.87;;;7.23;;
9473;SDS011;8865;47.636;7.692;2023-05-16T02:26:03;8.37;;;7.40;;
9473;SDS011;8865;47.636;7.692;2023-05-16T02:28:30;7.87;;;7.07;;
9473;SDS011;8865;47.636;7.692;2023-05-16T02:30:59;7.40;;;6.70;;
9473;SDS011;8865;47.636;7.692;2023-05-16T02:33:26;7.60;;;6.90;;
9473;SDS011;8865;47.636;7.692;2023-05-16T02:35:53;8.13;;;7.20;;
9473;SDS011;8865;47.636;7.692;2023-05-16T02:38:20;7.73;;;6.93;;
9473;SDS011;8865;47.636;7.692;2023-05-16T02:40:46;7.40;;;6.70;;
9473;SDS011;8865;47.636;7.692;2023-05-16T02:43:12;7.77;;;6.93;;
9473;SDS011;8865;47.636;7.692;2023-05-16T02:45:39;7.50;;;6.80;;
9473;SDS011;8865;47.636;7.692;2023-05-16T02:48:05;8.07;;;7.27;;
9473;SDS011;8865;47.636;7.692;2023-05-16T02:50:31;7.60;;;6.90;;
9473;SDS011;8865;47.636;7.692;2023-05-16T02:52:58;7.67;;;6.67;;
9473;SDS011;8865;47.636;7.692;2023-05-16T02:55:27;7.23;;;6.20;;
9473;SDS011;8865;47.636;7.692;2023-05-16T02:57:53;7.07;;;6.47;;
9473;SDS011;8865;47.636;7.692;2023-05-16T03:00:20;7.20;;;6.17;;
9473;SDS011;8865;47.636;7.692;2023-05-16T03:02:46;6.80;;;6.20;;
9473;SDS011;8865;47.636;7.692;2023-05-16T03:05:12;6.90;;;6.20;;
9473;SDS011;8865;47.636;7.692;2023-05-16T03:07:38;8.03;;;6.40;;
9473;SDS011;8865;47.636;7.692;2023-05-16T03:10:04;6.83;;;6.23;;
9473;SDS011;8865;47.636;7.692;2023-05-16T03:12:31;7.07;;;6.37;;
9473;SDS011;8865;47.636;7.692;2023-05-16T03:14:57;7.27;;;6.57;;
9473;SDS011;8865;47.636;7.692;2023-05-16T03:17:23;6.90;;;6.20;;
9473;SDS011;8865;47.636;7.692;2023-05-16T03:19:49;7.07;;;6.47;;
9473;SDS011;8865;47.636;7.692;2023-05-16T03:22:15;7.67;;;6.80;;
9473;SDS011;8865;47.636;7.692;2023-05-16T03:24:41;7.33;;;6.40;;
9473;SDS011;8865;47.636;7.692;2023-05-16T03:27:07;7.87;;;6.80;;
9473;SDS011;8865;47.636;7.692;2023-05-16T03:29:33;7.60;;;6.77;;
9473;SDS011;8865;47.636;7.692;2023-05-16T03:31:59;8.67;;;6.50;;
9473;SDS011;8865;47.636;7.692;2023-05-16T03:34:25;8.27;;;7.10;;
9473;SDS011;8865;47.636;7.692;2023-05-16T03:36:51;7.70;;;6.90;;
9473;SDS011;8865;47.636;7.692;2023-05-16T03:39:18;7.47;;;6.77;;
9473;SDS011;8865;47.636;7.692;2023-05-16T03:41:43;8.53;;;7.57;;
9473;SDS011;8865;47.636;7.692;2023-05-16T03:44:10;7.70;;;6.93;;
9473;SDS011;8865;47.636;7.692;2023-05-16T03:46:36;8.90;;;6.77;;
9473;SDS011;8865;47.636;7.692;2023-05-16T03:49:02;8.17;;;7.33;;
9473;SDS011;8865;47.636;7.692;2023-05-16T03:51:28;8.13;;;7.33;;
9473;SDS011;8865;47.636;7.692;2023-05-16T03:53:55;8.53;;;7.33;;
9473;SDS011;8865;47.636;7.692;2023-05-16T03:56:20;8.57;;;7.70;;
9473;SDS011;8865;47.636;7.692;2023-05-16T03:58:47;7.93;;;7.10;;
9473;SDS011;8865;47.636;7.692;2023-05-16T04:01:13;10.80;;;7.60;;
9473;SDS011;8865;47.636;7.692;2023-05-16T04:03:39;8.90;;;8.10;;
9473;SDS011;8865;47.636;7.692;2023-05-16T04:06:05;8.67;;;7.87;;
9473;SDS011;8865;47.636;7.692;2023-05-16T04:08:32;9.17;;;8.37;;
9473;SDS011;8865;47.636;7.692;2023-05-16T04:10:58;19.30;;;8.53;;
9473;SDS011;8865;47.636;7.692;2023-05-16T04:13:24;9.47;;;7.73;;
9473;SDS011;8865;47.636;7.692;2023-05-16T04:15:50;7.80;;;7.00;;
9473;SDS011;8865;47.636;7.692;2023-05-16T04:18:16;8.10;;;7.30;;
9473;SDS011;8865;47.636;7.692;2023-05-16T04:20:42;7.20;;;6.50;;
9473;SDS011;8865;47.636;7.692;2023-05-16T04:23:09;8.50;;;6.80;;
9473;SDS011;8865;47.636;7.692;2023-05-16T04:25:36;7.63;;;6.93;;
9473;SDS011;8865;47.636;7.692;2023-05-16T04:28:02;7.30;;;6.70;;
9473;SDS011;8865;47.636;7.692;2023-05-16T04:30:28;8.00;;;7.03;;
9473;SDS011;8865;47.636;7.692;2023-05-16T04:32:54;8.07;;;7.27;;
9473;SDS011;8865;47.636;7.692;2023-05-16T04:35:21;8.03;;;7.23;;
9473;SDS011;8865;47.636;7.692;2023-05-16T04:37:47;7.73;;;6.93;;
9473;SDS011;8865;47.636;7.692;2023-05-16T04:40:13;11.93;;;10.40;;
9473;SDS011;8865;47.636;7.692;2023-05-16T04:42:40;8.63;;;7.73;;
9473;SDS011;8865;47.636;7.692;2023-05-16T04:45:06;8.03;;;7.23;;
9473;SDS011;8865;47.636;7.692;2023-05-16T04:47:35;8.30;;;7.50;;
9473;SDS011;8865;47.636;7.692;2023-05-16T04:50:02;9.77;;;7.63;;
9473;SDS011;8865;47.636;7.692;2023-05-16T04:52:28;9.00;;;7.53;;
9473;SDS011;8865;47.636;7.692;2023-05-16T04:54:55;7.03;;;6.40;;
9473;SDS011;8865;47.636;7.692;2023-05-16T04:57:20;7.77;;;6.40;;
9473;SDS011;8865;47.636;7.692;2023-05-16T04:59:47;8.87;;;7.93;;
9473;SDS011;8865;47.636;7.692;2023-05-16T05:02:13;15.70;;;13.70;;
9473;SDS011;8865;47.636;7.692;2023-05-16T05:04:38;8.17;;;7.47;;
9473;SDS011;8865;47.636;7.692;2023-05-16T05:07:05;8.40;;;7.47;;
9473;SDS011;8865;47.636;7.692;2023-05-16T05:09:31;9.37;;;7.50;;
9473;SDS011;8865;47.636;7.692;2023-05-16T05:11:57;8.97;;;7.23;;
9473;SDS011;8865;47.636;7.692;2023-05-16T05:14:23;10.97;;;7.77;;
9473;SDS011;8865;47.636;7.692;2023-05-16T05:16:49;7.90;;;7.10;;
9473;SDS011;8865;47.636;7.692;2023-05-16T05:19:15;8.60;;;7.77;;
9473;SDS011;8865;47.636;7.692;2023-05-16T05:21:41;7.73;;;7.10;;
9473;SDS011;8865;47.636;7.692;2023-05-16T05:24:07;8.07;;;7.33;;
9473;SDS011;8865;47.636;7.692;2023-05-16T05:26:33;8.70;;;7.90;;
9473;SDS011;8865;47.636;7.692;2023-05-16T05:28:59;8.37;;;7.67;;
9473;SDS011;8865;47.636;7.692;2023-05-16T05:31:25;8.37;;;7.60;;
9473;SDS011;8865;47.636;7.692;2023-05-16T05:33:51;10.17;;;8.60;;
9473;SDS011;8865;47.636;7.692;2023-05-16T05:36:17;8.67;;;7.87;;
9473;SDS011;8865;47.636;7.692;2023-05-16T05:38:43;8.60;;;7.70;;
9473;SDS011;8865;47.636;7.692;2023-05-16T05:41:09;10.00;;;7.70;;
9473;SDS011;8865;47.636;7.692;2023-05-16T05:43:36;8.77;;;7.67;;
9473;SDS011;8865;47.636;7.692;2023-05-16T05:46:02;8.90;;;8.00;;
9473;SDS011;8865;47.636;7.692;2023-05-16T05:48:28;8.40;;;7.63;;
9473;SDS011;8865;47.636;7.692;2023-05-16T05:50:54;9.07;;;8.13;;
9473;SDS011;8865;47.636;7.692;2023-05-16T05:53:21;9.00;;;8.20;;
9473;SDS011;8865;47.636;7.692;2023-05-16T05:55:47;9.63;;;8.73;;
9473;SDS011;8865;47.636;7.692;2023-05-16T05:58:13;9.70;;;8.67;;
9473;SDS011;8865;47.636;7.692;2023-05-16T06:00:39;10.00;;;9.10;;
9473;SDS011;8865;47.636;7.692;2023-05-16T06:03:05;9.53;;;8.53;;
9473;SDS011;8865;47.636;7.692;2023-05-16T06:05:31;10.00;;;9.00;;
9473;SDS011;8865;47.636;7.692;2023-05-16T06:07:57;10.23;;;9.13;;
9473;SDS011;8865;47.636;7.692;2023-05-16T06:10:23;11.23;;;10.10;;
9473;SDS011;8865;47.636;7.692;2023-05-16T06:12:49;12.70;;;10.70;;
9473;SDS011;8865;47.636;7.692;2023-05-16T06:15:15;11.27;;;10.13;;
9473;SDS011;8865;47.636;7.692;2023-05-16T06:17:41;11.13;;;10.00;;
9473;SDS011;8865;47.636;7.692;2023-05-16T06:20:07;12.80;;;10.13;;
9473;SDS011;8865;47.636;7.692;2023-05-16T06:22:33;12.33;;;10.13;;
9473;SDS011;8865;47.636;7.692;2023-05-16T06:24:59;11.13;;;10.03;;
9473;SDS011;8865;47.636;7.692;2023-05-16T06:27:25;11.13;;;9.93;;
9473;SDS011;8865;47.636;7.692;2023-05-16T06:29:51;11.17;;;10.00;;
9473;SDS011;8865;47.636;7.692;2023-05-16T06:32:17;12.23;;;11.13;;
9473;SDS011;8865;47.636;7.692;2023-05-16T06:34:43;10.73;;;9.83;;
9473;SDS011;8865;47.636;7.692;2023-05-16T06:37:09;10.63;;;9.63;;
9473;SDS011;8865;47.636;7.692;2023-05-16T06:39:35;10.43;;;9.43;;
9473;SDS011;8865;47.636;7.692;2023-05-16T06:42:01;11.37;;;10.10;;
9473;SDS011;8865;47.636;7.692;2023-05-16T06:44:27;10.47;;;9.40;;
9473;SDS011;8865;47.636;7.692;2023-05-16T06:46:53;9.40;;;8.50;;
9473;SDS011;8865;47.636;7.692;2023-05-16T06:49:19;8.83;;;7.77;;
9473;SDS011;8865;47.636;7.692;2023-05-16T06:51:45;9.63;;;8.73;;
9473;SDS011;8865;47.636;7.692;2023-05-16T06:54:11;7.80;;;7.00;;
9473;SDS011;8865;47.636;7.692;2023-05-16T06:56:37;7.80;;;7.10;;
9473;SDS011;8865;47.636;7.692;2023-05-16T06:59:03;7.47;;;6.77;;
9473;SDS011;8865;47.636;7.692;2023-05-16T07:01:29;8.30;;;6.90;;
9473;SDS011;8865;47.636;7.692;2023-05-16T07:03:55;7.60;;;6.80;;
9473;SDS011;8865;47.636;7.692;2023-05-16T07:06:21;7.00;;;6.30;;
9473;SDS011;8865;47.636;7.692;2023-05-16T07:08:47;6.90;;;6.20;;
9473;SDS011;8865;47.636;7.692;2023-05-16T07:11:13;8.23;;;6.20;;
9473;SDS011;8865;47.636;7.692;2023-05-16T07:13:39;7.77;;;6.50;;
9473;SDS011;8865;47.636;7.692;2023-05-16T07:16:05;7.70;;;7.00;;
9473;SDS011;8865;47.636;7.692;2023-05-16T07:18:33;7.70;;;6.93;;
9473;SDS011;8865;47.636;7.692;2023-05-16T07:20:59;8.20;;;7.33;;
9473;SDS011;8865;47.636;7.692;2023-05-16T07:23:25;8.30;;;7.50;;
9473;SDS011;8865;47.636;7.692;2023-05-16T07:25:51;9.17;;;7.60;;
9473;SDS011;8865;47.636;7.692;2023-05-16T07:28:17;8.43;;;7.57;;
9473;SDS011;8865;47.636;7.692;2023-05-16T07:30:43;7.83;;;7.17;;
9473;SDS011;8865;47.636;7.692;2023-05-16T07:33:09;7.93;;;7.23;;
9473;SDS011;8865;47.636;7.692;2023-05-16T07:35:35;8.37;;;7.57;;
9473;SDS011;8865;47.636;7.692;2023-05-16T07:38:01;7.73;;;7.00;;
9473;SDS011;8865;47.636;7.692;2023-05-16T07:40:27;8.73;;;7.97;;
9473;SDS011;8865;47.636;7.692;2023-05-16T07:42:54;8.20;;;7.43;;
9473;SDS011;8865;47.636;7.692;2023-05-16T07:45:20;8.67;;;7.87;;
9473;SDS011;8865;47.636;7.692;2023-05-16T07:47:46;8.30;;;7.47;;
9473;SDS011;8865;47.636;7.692;2023-05-16T07:50:12;8.67;;;7.87;;
9473;SDS011;8865;47.636;7.692;2023-05-16T07:52:38;8.43;;;7.30;;
9473;SDS011;8865;47.636;7.692;2023-05-16T07:55:04;7.77;;;6.93;;
9473;SDS011;8865;47.636;7.692;2023-05-16T07:57:31;8.40;;;7.67;;
9473;SDS011;8865;47.636;7.692;2023-05-16T07:59:57;8.60;;;7.60;;
9473;SDS011;8865;47.636;7.692;2023-05-16T08:02:23;8.47;;;7.43;;
9473;SDS011;8865;47.636;7.692;2023-05-16T08:04:50;8.37;;;7.60;;
9473;SDS011;8865;47.636;7.692;2023-05-16T08:07:16;8.30;;;7.47;;
9473;SDS011;8865;47.636;7.692;2023-05-16T08:09:42;8.37;;;7.57;;
9473;SDS011;8865;47.636;7.692;2023-05-16T08:12:08;8.10;;;7.40;;
9473;SDS011;8865;47.636;7.692;2023-05-16T08:14:34;9.10;;;8.20;;
9473;SDS011;8865;47.636;7.692;2023-05-16T08:17:01;9.57;;;8.10;;
9473;SDS011;8865;47.636;7.692;2023-05-16T08:19:27;8.57;;;7.77;;
9473;SDS011;8865;47.636;7.692;2023-05-16T08:21:53;10.67;;;8.73;;
9473;SDS011;8865;47.636;7.692;2023-05-16T08:24:19;9.37;;;8.53;;
9473;SDS011;8865;47.636;7.692;2023-05-16T08:26:45;10.40;;;8.67;;
9473;SDS011;8865;47.636;7.692;2023-05-16T08:29:11;10.57;;;8.40;;
9473;SDS011;8865;47.636;7.692;2023-05-16T08:31:38;10.93;;;8.50;;
9473;SDS011;8865;47.636;7.692;2023-05-16T08:34:04;9.00;;;8.10;;
9473;SDS011;8865;47.636;7.692;2023-05-16T08:36:31;11.53;;;10.07;;
9473;SDS011;8865;47.636;7.692;2023-05-16T08:38:59;10.63;;;9.57;;
9473;SDS011;8865;47.636;7.692;2023-05-16T08:41:25;11.23;;;10.03;;
9473;SDS011;8865;47.636;7.692;2023-05-16T08:43:51;12.13;;;10.83;;
9473;SDS011;8865;47.636;7.692;2023-05-16T08:46:19;13.73;;;11.00;;
9473;SDS011;8865;47.636;7.692;2023-05-16T08:48:52;13.30;;;12.00;;
9473;SDS011;8865;47.636;7.692;2023-05-16T08:51:19;12.03;;;10.73;;
9473;SDS011;8865;47.636;7.692;2023-05-16T08:53:51;14.13;;;11.90;;
9473;SDS011;8865;47.636;7.692;2023-05-16T08:56:22;12.43;;;10.83;;
9473;SDS011;8865;47.636;7.692;2023-05-16T08:58:49;13.30;;;11.87;;
9473;SDS011;8865;47.636;7.692;2023-05-16T09:01:16;13.10;;;11.30;;
9473;SDS011;8865;47.636;7.692;2023-05-16T09:03:43;12.27;;;10.97;;
9473;SDS011;8865;47.636;7.692;2023-05-16T09:06:10;14.20;;;12.70;;
9473;SDS011;8865;47.636;7.692;2023-05-16T09:08:36;14.07;;;12.50;;
9473;SDS011;8865;47.636;7.692;2023-05-16T09:11:02;13.53;;;11.73;;
9473;SDS011;8865;47.636;7.692;2023-05-16T09:13:28;15.53;;;12.60;;
9473;SDS011;8865;47.636;7.692;2023-05-16T09:18:40;14.80;;;12.63;;
9473;SDS011;8865;47.636;7.692;2023-05-16T09:21:08;19.20;;;13.43;;
9473;SDS011;8865;47.636;7.692;2023-05-16T09:23:34;14.93;;;13.33;;
9473;SDS011;8865;47.636;7.692;2023-05-16T09:26:01;13.37;;;11.97;;
9473;SDS011;8865;47.636;7.692;2023-05-16T09:28:29;13.47;;;12.00;;
9473;SDS011;8865;47.636;7.692;2023-05-16T09:30:55;12.57;;;11.23;;
9473;SDS011;8865;47.636;7.692;2023-05-16T09:33:27;11.90;;;10.70;;
9473;SDS011;8865;47.636;7.692;2023-05-16T09:36:03;11.70;;;10.20;;
9473;SDS011;8865;47.636;7.692;2023-05-16T09:38:29;11.50;;;10.30;;
9473;SDS011;8865;47.636;7.692;2023-05-16T09:40:55;11.17;;;10.07;;
9473;SDS011;8865;47.636;7.692;2023-05-16T09:43:23;14.17;;;10.20;;
9473;SDS011;8865;47.636;7.692;2023-05-16T09:45:51;10.33;;;9.27;;
9473;SDS011;8865;47.636;7.692;2023-05-16T09:48:17;11.03;;;9.60;;
9473;SDS011;8865;47.636;7.692;2023-05-16T09:50:48;10.47;;;9.27;;
9473;SDS011;8865;47.636;7.692;2023-05-16T09:53:28;11.17;;;10.07;;
9473;SDS011;8865;47.636;7.692;2023-05-16T09:56:02;11.23;;;9.77;;
9473;SDS011;8865;47.636;7.692;2023-05-16T09:58:33;11.23;;;9.53;;
9473;SDS011;8865;47.636;7.692;2023-05-16T10:01:00;10.90;;;9.80;;
9473;SDS011;8865;47.636;7.692;2023-05-16T10:03:27;13.07;;;10.80;;
9473;SDS011;8865;47.636;7.692;2023-05-16T10:05:53;13.90;;;10.83;;
9473;SDS011;8865;47.636;7.692;2023-05-16T10:08:21;13.10;;;11.10;;
9473;SDS011;8865;47.636;7.692;2023-05-16T10:10:52;12.53;;;11.30;;
9473;SDS011;8865;47.636;7.692;2023-05-16T10:13:20;12.50;;;11.20;;
9473;SDS011;8865;47.636;7.692;2023-05-16T10:15:48;12.93;;;11.37;;
9473;SDS011;8865;47.636;7.692;2023-05-16T10:18:17;13.67;;;11.87;;
9473;SDS011;8865;47.636;7.692;2023-05-16T10:20:46;13.20;;;11.87;;
9473;SDS011;8865;47.636;7.692;2023-05-16T10:23:17;14.40;;;12.30;;
9473;SDS011;8865;47.636;7.692;2023-05-16T10:25:45;15.37;;;12.47;;
9473;SDS011;8865;47.636;7.692;2023-05-16T10:28:13;14.27;;;12.73;;
9473;SDS011;8865;47.636;7.692;2023-05-16T10:30:42;14.03;;;12.07;;
9473;SDS011;8865;47.636;7.692;2023-05-16T10:33:12;15.13;;;13.10;;
9473;SDS011;8865;47.636;7.692;2023-05-16T10:35:40;13.80;;;12.40;;
9473;SDS011;8865;47.636;7.692;2023-05-16T10:38:07;14.67;;;11.87;;
9473;SDS011;8865;47.636;7.692;2023-05-16T10:40:37;14.73;;;12.93;;
9473;SDS011;8865;47.636;7.692;2023-05-16T10:43:05;13.87;;;11.80;;
9473;SDS011;8865;47.636;7.692;2023-05-16T10:45:33;14.30;;;12.70;;
9473;SDS011;8865;47.636;7.692;2023-05-16T10:48:08;15.30;;;13.10;;
9473;SDS011;8865;47.636;7.692;2023-05-16T10:50:38;15.67;;;12.63;;
9473;SDS011;8865;47.636;7.692;2023-05-16T10:58:17;15.03;;;12.83;;
9473;SDS011;8865;47.636;7.692;2023-05-16T11:00:48;14.87;;;12.37;;
9473;SDS011;8865;47.636;7.692;2023-05-16T11:03:23;15.23;;;12.73;;
9473;SDS011;8865;47.636;7.692;2023-05-16T11:05:52;14.77;;;12.13;;
9473;SDS011;8865;47.636;7.692;2023-05-16T11:08:26;13.97;;;12.10;;
9473;SDS011;8865;47.636;7.692;2023-05-16T11:11:23;16.13;;;13.33;;
9473;SDS011;8865;47.636;7.692;2023-05-16T11:13:56;14.07;;;12.50;;
9473;SDS011;8865;47.636;7.692;2023-05-16T11:16:28;16.13;;;13.33;;
9473;SDS011;8865;47.636;7.692;2023-05-16T11:18:54;17.50;;;13.80;;
9473;SDS011;8865;47.636;7.692;2023-05-16T11:24:33;16.07;;;13.47;;
9473;SDS011;8865;47.636;7.692;2023-05-16T11:27:04;16.50;;;13.83;;
9473;SDS011;8865;47.636;7.692;2023-05-16T11:29:31;16.57;;;14.67;;
9473;SDS011;8865;47.636;7.692;2023-05-16T11:31:59;16.13;;;13.40;;
9473;SDS011;8865;47.636;7.692;2023-05-16T11:34:27;16.47;;;12.63;;
9473;SDS011;8865;47.636;7.692;2023-05-16T11:36:54;16.47;;;13.47;;
9473;SDS011;8865;47.636;7.692;2023-05-16T11:39:21;15.47;;;12.77;;
9473;SDS011;8865;47.636;7.692;2023-05-16T11:41:50;14.03;;;12.27;;
9473;SDS011;8865;47.636;7.692;2023-05-16T11:44:16;13.97;;;12.10;;
9473;SDS011;8865;47.636;7.692;2023-05-16T11:46:42;14.17;;;12.60;;
9473;SDS011;8865;47.636;7.692;2023-05-16T11:49:08;14.03;;;12.27;;
9473;SDS011;8865;47.636;7.692;2023-05-16T11:51:41;14.70;;;12.10;;
9473;SDS011;8865;47.636;7.692;2023-05-16T11:54:08;16.63;;;12.70;;
9473;SDS011;8865;47.636;7.692;2023-05-16T11:56:35;13.60;;;11.37;;
9473;SDS011;8865;47.636;7.692;2023-05-16T11:59:01;12.60;;;10.17;;
9473;SDS011;8865;47.636;7.692;2023-05-16T12:01:34;13.90;;;10.87;;
9473;SDS011;8865;47.636;7.692;2023-05-16T12:04:10;13.63;;;11.00;;
9473;SDS011;8865;47.636;7.692;2023-05-16T12:06:38;12.37;;;10.23;;
9473;SDS011;8865;47.636;7.692;2023-05-16T12:09:05;11.73;;;10.53;;
9473;SDS011;8865;47.636;7.692;2023-05-16T12:11:36;11.40;;;9.83;;
9473;SDS011;8865;47.636;7.692;2023-05-16T12:14:04;10.87;;;9.00;;
9473;SDS011;8865;47.636;7.692;2023-05-16T12:16:31;9.63;;;8.63;;
9473;SDS011;8865;47.636;7.692;2023-05-16T12:18:58;11.07;;;8.83;;
9473;SDS011;8865;47.636;7.692;2023-05-16T12:21:26;11.90;;;8.80;;
9473;SDS011;8865;47.636;7.692;2023-05-16T12:23:55;11.50;;;8.03;;
9473;SDS011;8865;47.636;7.692;2023-05-16T12:26:29;9.70;;;8.10;;
9473;SDS011;8865;47.636;7.692;2023-05-16T12:28:57;10.43;;;8.53;;
9473;SDS011;8865;47.636;7.692;2023-05-16T12:31:25;9.40;;;7.97;;
9473;SDS011;8865;47.636;7.692;2023-05-16T12:33:52;9.73;;;8.73;;
9473;SDS011;8865;47.636;7.692;2023-05-16T12:36:20;10.23;;;8.37;;
9473;SDS011;8865;47.636;7.692;2023-05-16T12:38:47;9.63;;;8.03;;
9473;SDS011;8865;47.636;7.692;2023-05-16T12:41:22;16.77;;;13.63;;
9473;SDS011;8865;47.636;7.692;2023-05-16T12:43:48;12.83;;;11.00;;
9473;SDS011;8865;47.636;7.692;2023-05-16T12:46:14;12.80;;;11.13;;
9473;SDS011;8865;47.636;7.692;2023-05-16T12:48:41;16.70;;;12.40;;
9473;SDS011;8865;47.636;7.692;2023-05-16T12:51:12;15.03;;;11.50;;
9473;SDS011;8865;47.636;7.692;2023-05-16T12:53:45;9.00;;;8.10;;
9473;SDS011;8865;47.636;7.692;2023-05-16T12:56:12;8.77;;;7.87;;
9473;SDS011;8865;47.636;7.692;2023-05-16T12:58:40;10.10;;;8.80;;
9473;SDS011;8865;47.636;7.692;2023-05-16T13:01:07;7.50;;;6.80;;
9473;SDS011;8865;47.636;7.692;2023-05-16T13:03:33;8.03;;;7.23;;
9473;SDS011;8865;47.636;7.692;2023-05-16T13:06:00;8.00;;;6.73;;
9473;SDS011;8865;47.636;7.692;2023-05-16T13:08:28;7.83;;;7.03;;
9473;SDS011;8865;47.636;7.692;2023-05-16T13:10:55;7.20;;;6.50;;
9473;SDS011;8865;47.636;7.692;2023-05-16T13:13:21;7.90;;;6.67;;
9473;SDS011;8865;47.636;7.692;2023-05-16T13:15:47;9.03;;;6.50;;
9473;SDS011;8865;47.636;7.692;2023-05-16T13:18:13;8.03;;;6.33;;
9473;SDS011;8865;47.636;7.692;2023-05-16T13:20:39;7.07;;;6.37;;
9473;SDS011;8865;47.636;7.692;2023-05-16T13:23:06;8.07;;;6.80;;
9473;SDS011;8865;47.636;7.692;2023-05-16T13:25:32;7.73;;;6.17;;
9473;SDS011;8865;47.636;7.692;2023-05-16T13:27:58;7.40;;;6.70;;
9473;SDS011;8865;47.636;7.692;2023-05-16T13:30:24;8.00;;;6.37;;
9473;SDS011;8865;47.636;7.692;2023-05-16T13:32:50;7.10;;;6.40;;
9473;SDS011;8865;47.636;7.692;2023-05-16T13:35:17;7.47;;;6.20;;
9473;SDS011;8865;47.636;7.692;2023-05-16T13:37:43;7.37;;;6.33;;
9473;SDS011;8865;47.636;7.692;2023-05-16T13:40:09;7.67;;;6.03;;
9473;SDS011;8865;47.636;7.692;2023-05-16T13:42:36;7.77;;;5.03;;
9473;SDS011;8865;47.636;7.692;2023-05-16T13:45:03;5.10;;;4.57;;
9473;SDS011;8865;47.636;7.692;2023-05-16T13:47:30;5.00;;;4.60;;
9473;SDS011;8865;47.636;7.692;2023-05-16T13:49:57;5.43;;;4.90;;
9473;SDS011;8865;47.636;7.692;2023-05-16T13:52:24;4.53;;;4.13;;
9473;SDS011;8865;47.636;7.692;2023-05-16T13:54:50;5.27;;;3.97;;
9473;SDS011;8865;47.636;7.692;2023-05-16T13:57:16;6.10;;;4.10;;
9473;SDS011;8865;47.636;7.692;2023-05-16T13:59:42;4.77;;;4.37;;
9473;SDS011;8865;47.636;7.692;2023-05-16T14:02:08;5.27;;;4.30;;
9473;SDS011;8865;47.636;7.692;2023-05-16T14:04:34;4.53;;;4.13;;
9473;SDS011;8865;47.636;7.692;2023-05-16T14:07:00;4.83;;;4.30;;
9473;SDS011;8865;47.636;7.692;2023-05-16T14:09:26;5.33;;;4.53;;
9473;SDS011;8865;47.636;7.692;2023-05-16T14:11:52;5.03;;;4.53;;
9473;SDS011;8865;47.636;7.692;2023-05-16T14:14:18;5.13;;;4.63;;
9473;SDS011;8865;47.636;7.692;2023-05-16T14:16:44;4.90;;;4.43;;
9473;SDS011;8865;47.636;7.692;2023-05-16T14:19:10;4.33;;;3.93;;
9473;SDS011;8865;47.636;7.692;2023-05-16T14:21:37;4.33;;;3.93;;
9473;SDS011;8865;47.636;7.692;2023-05-16T14:24:03;4.73;;;4.30;;
9473;SDS011;8865;47.636;7.692;2023-05-16T14:26:30;4.67;;;3.93;;
9473;SDS011;8865;47.636;7.692;2023-05-16T14:28:56;4.40;;;3.63;;
9473;SDS011;8865;47.636;7.692;2023-05-16T14:31:22;4.47;;;4.07;;
9473;SDS011;8865;47.636;7.692;2023-05-16T14:33:48;3.93;;;3.53;;
9473;SDS011;8865;47.636;7.692;2023-05-16T14:36:14;4.03;;;3.63;;
9473;SDS011;8865;47.636;7.692;2023-05-16T14:38:41;3.90;;;3.60;;
9473;SDS011;8865;47.636;7.692;2023-05-16T14:41:07;4.00;;;3.70;;
9473;SDS011;8865;47.636;7.692;2023-05-16T14:43:33;4.30;;;3.33;;
9473;SDS011;8865;47.636;7.692;2023-05-16T14:45:59;3.63;;;3.33;;
9473;SDS011;8865;47.636;7.692;2023-05-16T14:48:25;3.40;;;3.10;;
9473;SDS011;8865;47.636;7.692;2023-05-16T14:50:51;3.23;;;3.03;;
9473;SDS011;8865;47.636;7.692;2023-05-16T14:53:17;3.73;;;2.80;;
9473;SDS011;8865;47.636;7.692;2023-05-16T14:55:43;5.17;;;3.00;;
9473;SDS011;8865;47.636;7.692;2023-05-16T14:58:09;3.30;;;3.00;;
9473;SDS011;8865;47.636;7.692;2023-05-16T15:00:36;3.33;;;2.80;;
9473;SDS011;8865;47.636;7.692;2023-05-16T15:03:02;3.23;;;2.93;;
9473;SDS011;8865;47.636;7.692;2023-05-16T15:05:28;3.87;;;3.40;;
9473;SDS011;8865;47.636;7.692;2023-05-16T15:07:54;3.30;;;3.00;;
9473;SDS011;8865;47.636;7.692;2023-05-16T15:10:20;4.43;;;3.30;;
9473;SDS011;8865;47.636;7.692;2023-05-16T15:12:46;5.33;;;3.33;;
9473;SDS011;8865;47.636;7.692;2023-05-16T15:15:12;4.83;;;3.90;;
9473;SDS011;8865;47.636;7.692;2023-05-16T15:17:39;11.53;;;10.23;;
9473;SDS011;8865;47.636;7.692;2023-05-16T15:20:09;3.60;;;3.30;;
9473;SDS011;8865;47.636;7.692;2023-05-16T15:22:37;3.30;;;3.00;;
9473;SDS011;8865;47.636;7.692;2023-05-16T15:25:06;3.33;;;3.00;;
9473;SDS011;8865;47.636;7.692;2023-05-16T15:27:33;3.63;;;3.30;;
9473;SDS011;8865;47.636;7.692;2023-05-16T15:29:59;3.37;;;3.07;;